createdAt,value
2022-09-28T00:00:16.179Z,16.29
2022-09-28T00:05:40.149Z,16.34
2022-09-28T00:11:06.185Z,16.34
2022-09-28T00:16:35.149Z,16.29
2022-09-28T00:21:59.311Z,16.29
2022-09-28T00:27:24.005Z,16.26
2022-09-28T00:32:50.204Z,16.26
2022-09-28T00:38:16.821Z,16.30
2022-09-28T00:43:43.268Z,16.33
2022-09-28T00:49:16.605Z,16.35
2022-09-28T00:54:43.773Z,16.37
2022-09-28T01:00:10.068Z,16.40
2022-09-28T01:05:37.912Z,16.38
2022-09-28T01:11:04.304Z,16.38
2022-09-28T01:16:39.190Z,16.38
2022-09-28T01:22:50.915Z,16.38
2022-09-28T01:28:20.401Z,16.38
2022-09-28T01:33:49.250Z,16.37
2022-09-28T01:39:17.813Z,16.31
2022-09-28T01:44:47.772Z,16.28
2022-09-28T01:50:16.681Z,16.28
2022-09-28T01:55:47.111Z,16.31
2022-09-28T02:01:22.981Z,16.27
2022-09-28T02:06:54.265Z,16.27
2022-09-28T02:12:29.039Z,16.29
2022-09-28T02:17:56.086Z,16.29
2022-09-28T02:23:23.617Z,16.28
2022-09-28T02:28:47.365Z,16.31
2022-09-28T02:34:13.549Z,16.34
2022-09-28T02:39:38.491Z,16.36
2022-09-28T02:45:16.936Z,16.39
2022-09-28T02:50:52.658Z,16.35
2022-09-28T02:56:34.092Z,16.39
2022-09-28T03:02:04.813Z,16.39
2022-09-28T03:07:37.338Z,16.46
2022-09-28T03:13:02.907Z,16.46
2022-09-28T03:18:27.484Z,16.34
2022-09-28T03:23:53.558Z,16.27
2022-09-28T03:29:20.248Z,16.24
2022-09-28T03:34:51.977Z,16.21
2022-09-28T03:40:18.232Z,16.19
2022-09-28T03:45:44.125Z,16.15
2022-09-28T03:51:12.046Z,16.17
2022-09-28T03:56:37.576Z,16.15
2022-09-28T04:02:01.869Z,16.28
2022-09-28T04:07:30.209Z,16.34
2022-09-28T04:12:58.312Z,16.37
2022-09-28T04:18:22.557Z,16.31
2022-09-28T04:24:05.763Z,16.24
2022-09-28T04:29:31.224Z,16.21
2022-09-28T04:34:56.768Z,16.22
2022-09-28T04:40:21.654Z,16.16
2022-09-28T04:45:49.220Z,16.14
2022-09-28T04:51:18.158Z,16.19
2022-09-28T04:56:42.333Z,16.17
2022-09-28T05:02:08.028Z,16.10
2022-09-28T05:07:35.616Z,16.09
2022-09-28T05:13:02.941Z,16.12
2022-09-28T05:18:28.673Z,16.14
2022-09-28T05:24:01.416Z,16.18
2022-09-28T05:29:30.093Z,16.14
2022-09-28T05:35:17.011Z,16.03
2022-09-28T05:40:45.089Z,16.10
2022-09-28T05:46:11.730Z,16.13
2022-09-28T05:51:39.277Z,16.14
2022-09-28T05:57:03.309Z,16.09
2022-09-28T06:02:27.635Z,16.08
2022-09-28T06:07:54.073Z,16.07
2022-09-28T06:13:18.229Z,15.92
2022-09-28T06:18:43.610Z,15.81
2022-09-28T06:24:12.449Z,15.63
2022-09-28T06:29:38.066Z,15.63
2022-09-28T06:35:02.050Z,15.68
2022-09-28T06:40:29.314Z,15.74
2022-09-28T06:45:54.857Z,15.66
2022-09-28T06:51:35.028Z,15.70
2022-09-28T06:57:26.873Z,15.77
2022-09-28T07:02:50.699Z,15.79
2022-09-28T07:08:35.255Z,15.84
2022-09-28T07:14:24.397Z,15.88
2022-09-28T07:19:53.676Z,15.95
2022-09-28T07:25:23.931Z,15.97
2022-09-28T07:31:04.717Z,15.95
2022-09-28T07:36:44.298Z,16.13
2022-09-28T07:42:09.465Z,16.23
2022-09-28T07:47:35.346Z,16.46
2022-09-28T07:53:14.775Z,16.75
2022-09-28T07:58:54.801Z,16.96
2022-09-28T08:04:40.946Z,17.17
2022-09-28T08:10:06.609Z,17.33
2022-09-28T08:15:43.358Z,17.20
2022-09-28T08:21:41.385Z,17.09
2022-09-28T08:27:07.251Z,17.28
2022-09-28T08:32:32.791Z,17.40
2022-09-28T08:38:18.423Z,17.61
2022-09-28T08:44:13.953Z,17.81
2022-09-28T08:49:58.294Z,18.13
2022-09-28T08:56:00.161Z,18.30
2022-09-28T09:01:31.197Z,19.27
2022-09-28T09:07:14.007Z,20.90
2022-09-28T09:18:34.444Z,22.43
2022-09-28T09:24:27.364Z,22.74
2022-09-28T09:30:06.252Z,22.24
2022-09-28T09:36:00.193Z,20.98
2022-09-28T09:42:08.297Z,20.33
2022-09-28T09:48:04.407Z,19.97
2022-09-28T09:53:37.708Z,19.77
2022-09-28T09:59:12.777Z,19.68
2022-09-28T10:05:04.017Z,19.51
2022-09-28T10:10:37.870Z,19.46
2022-09-28T10:16:08.922Z,19.61
2022-09-28T10:21:44.683Z,19.79
2022-09-28T10:27:22.640Z,19.91
2022-09-28T10:32:48.861Z,19.48
2022-09-28T10:38:19.580Z,19.60
2022-09-28T10:44:06.292Z,19.80
2022-09-28T10:49:54.703Z,20.02
2022-09-28T10:55:32.963Z,20.22
2022-09-28T11:01:03.389Z,20.04
2022-09-28T11:06:31.167Z,19.92
2022-09-28T11:11:58.678Z,19.88
2022-09-28T11:17:28.732Z,19.63
2022-09-28T11:22:54.908Z,19.50
2022-09-28T11:28:27.236Z,19.48
2022-09-28T11:34:02.123Z,19.50
2022-09-28T11:39:33.771Z,19.38
2022-09-28T11:45:11.093Z,19.36
2022-09-28T11:50:46.699Z,19.36
2022-09-28T11:56:19.839Z,19.49
2022-09-28T12:01:50.473Z,19.52
2022-09-28T12:07:33.607Z,19.44
2022-09-28T12:13:05.094Z,19.41
2022-09-28T12:18:38.945Z,19.38
2022-09-28T12:24:08.758Z,19.30
2022-09-28T12:29:39.148Z,19.40
2022-09-28T12:35:12.988Z,19.58
2022-09-28T12:40:45.467Z,19.62
2022-09-28T12:46:42.404Z,19.76
2022-09-28T12:52:25.183Z,19.57
2022-09-28T12:58:00.758Z,19.47
2022-09-28T13:04:02.185Z,19.18
2022-09-28T13:09:29.042Z,19.16
2022-09-28T13:15:17.370Z,19.13
2022-09-28T13:20:57.674Z,19.12
2022-09-28T13:26:29.158Z,19.15
2022-09-28T13:31:57.178Z,19.13
2022-09-28T13:37:25.643Z,19.17
2022-09-28T13:43:06.788Z,19.16
2022-09-28T13:48:44.465Z,19.12
2022-09-28T13:54:27.416Z,19.19
2022-09-28T14:00:02.621Z,19.24
2022-09-28T14:05:46.940Z,19.16
2022-09-28T14:11:43.214Z,18.84
2022-09-28T14:17:50.487Z,18.76
2022-09-28T14:23:47.818Z,18.68
2022-09-28T14:29:28.420Z,18.49
2022-09-28T14:35:02.337Z,18.37
2022-09-28T14:41:02.452Z,18.31
2022-09-28T14:46:38.446Z,18.20
2022-09-28T14:52:04.881Z,18.16
2022-09-28T14:57:33.734Z,18.12
2022-09-28T15:03:03.571Z,18.02
2022-09-28T15:08:40.109Z,17.88
2022-09-28T15:14:10.701Z,17.63
2022-09-28T15:19:44.919Z,17.57
2022-09-28T15:25:19.814Z,17.49
2022-09-28T15:30:44.321Z,17.38
2022-09-28T15:36:11.446Z,17.30
2022-09-28T15:41:37.640Z,17.22
2022-09-28T15:47:10.836Z,17.17
2022-09-28T15:52:39.912Z,17.10
2022-09-28T15:58:18.275Z,16.96
2022-09-28T16:03:42.798Z,16.90
2022-09-28T16:09:26.663Z,16.79
2022-09-28T16:14:55.896Z,16.67
2022-09-28T16:20:27.694Z,16.49
2022-09-28T16:25:56.280Z,16.41
2022-09-28T16:31:30.031Z,16.23
2022-09-28T16:36:54.712Z,16.18
2022-09-28T16:42:21.865Z,16.18
2022-09-28T16:47:53.037Z,16.17
2022-09-28T16:53:36.270Z,16.15
2022-09-28T16:59:01.210Z,16.05
2022-09-28T17:04:27.910Z,16.04
2022-09-28T17:09:53.067Z,15.96
2022-09-28T17:15:19.539Z,15.87
2022-09-28T17:20:48.212Z,15.86
2022-09-28T17:26:20.029Z,15.74
2022-09-28T17:31:47.059Z,15.68
2022-09-28T17:37:15.584Z,15.60
2022-09-28T17:42:40.557Z,15.54
2022-09-28T17:48:05.447Z,15.54
2022-09-28T17:53:33.353Z,15.53
2022-09-28T17:58:59.857Z,15.52
2022-09-28T18:04:47.546Z,15.35
2022-09-28T18:10:14.563Z,15.32
2022-09-28T18:15:39.119Z,15.34
2022-09-28T18:21:04.355Z,15.26
2022-09-28T18:26:29.851Z,15.21
2022-09-28T18:31:54.039Z,15.23
2022-09-28T18:37:18.805Z,15.28
2022-09-28T18:42:44.237Z,15.18
2022-09-28T18:48:08.236Z,15.22
2022-09-28T18:53:34.805Z,15.26
2022-09-28T18:59:01.848Z,15.27
2022-09-28T19:04:27.748Z,15.27
2022-09-28T19:09:53.292Z,15.30
2022-09-28T19:15:22.610Z,15.27
2022-09-28T19:20:48.431Z,15.21
2022-09-28T19:26:15.956Z,15.16
2022-09-28T19:31:43.307Z,15.09
2022-09-28T19:37:08.805Z,15.05
2022-09-28T19:42:33.244Z,15.02
2022-09-28T19:47:59.520Z,14.99
2022-09-28T19:53:26.007Z,14.97
2022-09-28T19:58:50.245Z,14.93
2022-09-28T20:04:15.685Z,14.93
2022-09-28T20:09:40.056Z,14.93
2022-09-28T20:15:06.794Z,14.93
2022-09-28T20:20:32.065Z,14.94
2022-09-28T20:25:57.653Z,14.92
2022-09-28T20:31:23.349Z,14.92
2022-09-28T20:36:48.985Z,14.91
2022-09-28T20:42:15.473Z,14.91
2022-09-28T20:47:40.447Z,14.89
2022-09-28T20:53:06.357Z,14.80
2022-09-28T20:58:31.053Z,14.79
2022-09-28T21:03:58.089Z,14.78
2022-09-28T21:09:24.958Z,14.43
2022-09-28T21:14:49.618Z,14.33
2022-09-28T21:20:14.376Z,14.36
2022-09-28T21:25:40.111Z,14.39
2022-09-28T21:31:07.741Z,14.36
2022-09-28T21:36:33.728Z,14.32
2022-09-28T21:42:00.888Z,14.25
2022-09-28T21:47:26.401Z,14.22
2022-09-28T21:52:51.924Z,14.19
2022-09-28T21:58:23.191Z,14.13
2022-09-28T22:03:50.492Z,13.95
2022-09-28T22:09:15.517Z,13.84
2022-09-28T22:14:42.893Z,13.83
2022-09-28T22:20:08.073Z,13.83
2022-09-28T22:25:31.996Z,13.77
2022-09-28T22:30:58.203Z,13.74
2022-09-28T22:36:22.737Z,13.70
2022-09-28T22:41:46.721Z,13.64
2022-09-28T22:47:12.203Z,13.59
2022-09-28T22:52:36.405Z,13.57
2022-09-28T22:58:00.678Z,13.60
2022-09-28T23:03:26.267Z,13.65
2022-09-28T23:08:53.219Z,13.69
2022-09-28T23:14:17.970Z,13.67
2022-09-28T23:19:43.929Z,13.67
2022-09-28T23:25:13.363Z,13.69
2022-09-28T23:30:37.945Z,13.69
2022-09-28T23:36:03.976Z,13.69
2022-09-28T23:41:28.160Z,13.71
2022-09-28T23:46:52.702Z,13.74
2022-09-28T23:52:18.425Z,13.76
2022-09-28T23:57:44.056Z,13.79
